sensor_id;sensor_type;location;lat;lon;timestamp;P1;durP1;ratioP1;P2;durP2;ratioP2
32894;SDS011;19251;49.484;8.260;2022-09-30T00:02:05;3.10;;;1.30;;
32894;SDS011;19251;49.484;8.260;2022-09-30T00:07:07;2.60;;;1.30;;
32894;SDS011;19251;49.484;8.260;2022-09-30T00:12:09;3.37;;;1.87;;
32894;SDS011;19251;49.484;8.260;2022-09-30T00:17:11;2.42;;;1.52;;
32894;SDS011;19251;49.484;8.260;2022-09-30T00:22:13;3.37;;;1.65;;
32894;SDS011;19251;49.484;8.260;2022-09-30T00:27:15;1.98;;;1.45;;
32894;SDS011;19251;49.484;8.260;2022-09-30T00:32:18;3.05;;;0.85;;
32894;SDS011;19251;49.484;8.260;2022-09-30T00:37:20;2.37;;;1.23;;
32894;SDS011;19251;49.484;8.260;2022-09-30T00:42:22;3.77;;;1.47;;
32894;SDS011;19251;49.484;8.260;2022-09-30T00:52:53;1.90;;;1.40;;
32894;SDS011;19251;49.484;8.260;2022-09-30T00:58:08;3.85;;;1.55;;
32894;SDS011;19251;49.484;8.260;2022-09-30T01:03:16;2.25;;;1.50;;
32894;SDS011;19251;49.484;8.260;2022-09-30T01:08:19;1.40;;;1.25;;
32894;SDS011;19251;49.484;8.260;2022-09-30T01:13:22;1.60;;;1.00;;
32894;SDS011;19251;49.484;8.260;2022-09-30T01:24:06;1.15;;;1.10;;
32894;SDS011;19251;49.484;8.260;2022-09-30T01:40:22;2.15;;;0.90;;
32894;SDS011;19251;49.484;8.260;2022-09-30T01:45:37;2.40;;;1.00;;
32894;SDS011;19251;49.484;8.260;2022-09-30T01:55:51;2.33;;;1.20;;
32894;SDS011;19251;49.484;8.260;2022-09-30T02:01:07;1.00;;;0.80;;
32894;SDS011;19251;49.484;8.260;2022-09-30T02:06:16;1.90;;;1.00;;
32894;SDS011;19251;49.484;8.260;2022-09-30T02:11:24;1.40;;;0.73;;
32894;SDS011;19251;49.484;8.260;2022-09-30T02:16:34;3.95;;;0.85;;
32894;SDS011;19251;49.484;8.260;2022-09-30T02:21:42;1.20;;;1.10;;
32894;SDS011;19251;49.484;8.260;2022-09-30T02:26:52;1.35;;;0.70;;
32894;SDS011;19251;49.484;8.260;2022-09-30T02:32:01;3.75;;;0.80;;
32894;SDS011;19251;49.484;8.260;2022-09-30T02:37:18;2.05;;;0.80;;
32894;SDS011;19251;49.484;8.260;2022-09-30T02:42:26;5.67;;;1.07;;
32894;SDS011;19251;49.484;8.260;2022-09-30T02:53:01;1.45;;;0.80;;
32894;SDS011;19251;49.484;8.260;2022-09-30T02:58:16;1.77;;;0.97;;
32894;SDS011;19251;49.484;8.260;2022-09-30T03:03:44;1.13;;;1.03;;
32894;SDS011;19251;49.484;8.260;2022-09-30T03:08:50;6.03;;;1.23;;
32894;SDS011;19251;49.484;8.260;2022-09-30T03:13:57;0.80;;;0.70;;
32894;SDS011;19251;49.484;8.260;2022-09-30T03:30:15;2.45;;;1.05;;
32894;SDS011;19251;49.484;8.260;2022-09-30T03:46:05;1.00;;;0.75;;
32894;SDS011;19251;49.484;8.260;2022-09-30T03:51:10;1.85;;;1.00;;
32894;SDS011;19251;49.484;8.260;2022-09-30T03:56:14;1.60;;;1.23;;
32894;SDS011;19251;49.484;8.260;2022-09-30T04:01:17;1.43;;;0.90;;
32894;SDS011;19251;49.484;8.260;2022-09-30T04:06:22;2.60;;;1.35;;
32894;SDS011;19251;49.484;8.260;2022-09-30T04:11:26;0.75;;;0.60;;
32894;SDS011;19251;49.484;8.260;2022-09-30T04:16:28;0.80;;;0.80;;
32894;SDS011;19251;49.484;8.260;2022-09-30T04:21:30;1.00;;;0.60;;
32894;SDS011;19251;49.484;8.260;2022-09-30T04:26:32;2.40;;;0.85;;
32894;SDS011;19251;49.484;8.260;2022-09-30T04:31:35;0.90;;;0.60;;
32894;SDS011;19251;49.484;8.260;2022-09-30T04:36:37;0.70;;;0.65;;
32894;SDS011;19251;49.484;8.260;2022-09-30T04:41:39;1.65;;;1.00;;
32894;SDS011;19251;49.484;8.260;2022-09-30T04:46:41;1.37;;;0.95;;
32894;SDS011;19251;49.484;8.260;2022-09-30T04:51:44;1.83;;;1.17;;
32894;SDS011;19251;49.484;8.260;2022-09-30T04:56:46;1.50;;;1.10;;
32894;SDS011;19251;49.484;8.260;2022-09-30T05:01:48;2.97;;;1.60;;
32894;SDS011;19251;49.484;8.260;2022-09-30T05:06:51;4.90;;;2.47;;
32894;SDS011;19251;49.484;8.260;2022-09-30T05:11:53;12.37;;;3.97;;
32894;SDS011;19251;49.484;8.260;2022-09-30T05:16:55;7.87;;;4.55;;
32894;SDS011;19251;49.484;8.260;2022-09-30T05:21:57;5.53;;;3.93;;
32894;SDS011;19251;49.484;8.260;2022-09-30T05:26:59;7.65;;;3.62;;
32894;SDS011;19251;49.484;8.260;2022-09-30T05:32:02;9.00;;;3.97;;
32894;SDS011;19251;49.484;8.260;2022-09-30T05:37:04;5.63;;;2.90;;
32894;SDS011;19251;49.484;8.260;2022-09-30T05:47:14;5.37;;;3.30;;
32894;SDS011;19251;49.484;8.260;2022-09-30T05:52:16;3.75;;;2.45;;
32894;SDS011;19251;49.484;8.260;2022-09-30T05:57:19;3.90;;;3.00;;
32894;SDS011;19251;49.484;8.260;2022-09-30T06:02:21;12.82;;;2.83;;
32894;SDS011;19251;49.484;8.260;2022-09-30T06:07:23;3.65;;;2.15;;
32894;SDS011;19251;49.484;8.260;2022-09-30T06:12:25;2.65;;;2.00;;
32894;SDS011;19251;49.484;8.260;2022-09-30T06:17:29;4.70;;;1.93;;
32894;SDS011;19251;49.484;8.260;2022-09-30T06:22:31;6.32;;;2.37;;
32894;SDS011;19251;49.484;8.260;2022-09-30T06:27:36;8.63;;;2.80;;
32894;SDS011;19251;49.484;8.260;2022-09-30T06:32:38;3.50;;;2.42;;
32894;SDS011;19251;49.484;8.260;2022-09-30T06:37:41;4.45;;;3.08;;
32894;SDS011;19251;49.484;8.260;2022-09-30T06:42:45;2.90;;;2.00;;
32894;SDS011;19251;49.484;8.260;2022-09-30T06:47:48;2.50;;;2.25;;
32894;SDS011;19251;49.484;8.260;2022-09-30T06:53:02;2.80;;;2.05;;
32894;SDS011;19251;49.484;8.260;2022-09-30T06:58:07;4.80;;;1.25;;
32894;SDS011;19251;49.484;8.260;2022-09-30T07:03:21;5.95;;;3.30;;
32894;SDS011;19251;49.484;8.260;2022-09-30T07:08:29;6.15;;;2.35;;
32894;SDS011;19251;49.484;8.260;2022-09-30T07:13:33;10.80;;;2.55;;
32894;SDS011;19251;49.484;8.260;2022-09-30T07:18:35;4.43;;;2.45;;
32894;SDS011;19251;49.484;8.260;2022-09-30T07:23:38;9.07;;;3.08;;
32894;SDS011;19251;49.484;8.260;2022-09-30T07:28:49;5.00;;;2.85;;
32894;SDS011;19251;49.484;8.260;2022-09-30T07:33:52;4.00;;;2.60;;
32894;SDS011;19251;49.484;8.260;2022-09-30T07:38:57;3.25;;;2.25;;
32894;SDS011;19251;49.484;8.260;2022-09-30T07:43:59;5.37;;;2.87;;
32894;SDS011;19251;49.484;8.260;2022-09-30T07:54:13;9.30;;;3.13;;
32894;SDS011;19251;49.484;8.260;2022-09-30T07:59:17;7.47;;;3.33;;
32894;SDS011;19251;49.484;8.260;2022-09-30T08:04:20;5.97;;;3.17;;
32894;SDS011;19251;49.484;8.260;2022-09-30T08:09:25;14.27;;;4.37;;
32894;SDS011;19251;49.484;8.260;2022-09-30T08:14:29;5.33;;;3.67;;
32894;SDS011;19251;49.484;8.260;2022-09-30T08:19:31;7.50;;;3.87;;
32894;SDS011;19251;49.484;8.260;2022-09-30T08:24:34;7.43;;;4.43;;
32894;SDS011;19251;49.484;8.260;2022-09-30T08:29:36;9.20;;;5.07;;
32894;SDS011;19251;49.484;8.260;2022-09-30T08:34:57;10.20;;;5.00;;
32894;SDS011;19251;49.484;8.260;2022-09-30T08:39:59;10.65;;;4.15;;
32894;SDS011;19251;49.484;8.260;2022-09-30T08:45:18;6.87;;;4.50;;
32894;SDS011;19251;49.484;8.260;2022-09-30T08:50:50;7.80;;;5.70;;
32894;SDS011;19251;49.484;8.260;2022-09-30T08:55:57;9.65;;;4.15;;
32894;SDS011;19251;49.484;8.260;2022-09-30T09:01:05;8.90;;;4.75;;
32894;SDS011;19251;49.484;8.260;2022-09-30T09:06:19;6.03;;;4.55;;
32894;SDS011;19251;49.484;8.260;2022-09-30T09:12:08;8.90;;;5.97;;
32894;SDS011;19251;49.484;8.260;2022-09-30T09:23:13;6.15;;;3.90;;
32894;SDS011;19251;49.484;8.260;2022-09-30T09:28:21;9.55;;;4.22;;
32894;SDS011;19251;49.484;8.260;2022-09-30T09:33:29;5.28;;;4.32;;
32894;SDS011;19251;49.484;8.260;2022-09-30T09:38:39;8.52;;;5.18;;
32894;SDS011;19251;49.484;8.260;2022-09-30T09:54:21;7.18;;;4.80;;
32894;SDS011;19251;49.484;8.260;2022-09-30T09:59:26;7.68;;;4.75;;
32894;SDS011;19251;49.484;8.260;2022-09-30T10:04:29;10.20;;;4.28;;
32894;SDS011;19251;49.484;8.260;2022-09-30T10:09:35;6.10;;;4.40;;
32894;SDS011;19251;49.484;8.260;2022-09-30T10:14:39;5.85;;;4.37;;
32894;SDS011;19251;49.484;8.260;2022-09-30T10:19:49;9.93;;;4.00;;
32894;SDS011;19251;49.484;8.260;2022-09-30T10:36:00;6.80;;;5.40;;
32894;SDS011;19251;49.484;8.260;2022-09-30T10:41:04;4.80;;;3.62;;
32894;SDS011;19251;49.484;8.260;2022-09-30T10:46:07;8.85;;;4.25;;
32894;SDS011;19251;49.484;8.260;2022-09-30T10:51:31;5.95;;;3.55;;
32894;SDS011;19251;49.484;8.260;2022-09-30T10:56:40;7.37;;;3.37;;
32894;SDS011;19251;49.484;8.260;2022-09-30T11:01:46;9.23;;;3.50;;
32894;SDS011;19251;49.484;8.260;2022-09-30T11:12:23;6.93;;;3.70;;
32894;SDS011;19251;49.484;8.260;2022-09-30T11:22:55;5.62;;;2.95;;
32894;SDS011;19251;49.484;8.260;2022-09-30T11:28:15;4.60;;;2.22;;
32894;SDS011;19251;49.484;8.260;2022-09-30T11:59:52;4.95;;;1.98;;
32894;SDS011;19251;49.484;8.260;2022-09-30T12:05:03;5.87;;;1.60;;
32894;SDS011;19251;49.484;8.260;2022-09-30T12:10:20;6.60;;;2.00;;
32894;SDS011;19251;49.484;8.260;2022-09-30T12:15:29;2.72;;;2.00;;
32894;SDS011;19251;49.484;8.260;2022-09-30T12:20:35;7.35;;;1.80;;
32894;SDS011;19251;49.484;8.260;2022-09-30T12:25:54;4.62;;;2.10;;
32894;SDS011;19251;49.484;8.260;2022-09-30T12:31:02;4.53;;;2.65;;
32894;SDS011;19251;49.484;8.260;2022-09-30T12:36:23;4.70;;;2.05;;
32894;SDS011;19251;49.484;8.260;2022-09-30T12:52:29;3.75;;;2.20;;
32894;SDS011;19251;49.484;8.260;2022-09-30T12:57:35;3.42;;;2.58;;
32894;SDS011;19251;49.484;8.260;2022-09-30T13:02:43;4.18;;;2.60;;
32894;SDS011;19251;49.484;8.260;2022-09-30T13:08:07;7.70;;;2.55;;
32894;SDS011;19251;49.484;8.260;2022-09-30T13:23:34;4.87;;;2.67;;
32894;SDS011;19251;49.484;8.260;2022-09-30T13:28:37;6.82;;;2.95;;
32894;SDS011;19251;49.484;8.260;2022-09-30T13:33:44;4.55;;;2.58;;
32894;SDS011;19251;49.484;8.260;2022-09-30T13:39:06;6.85;;;2.72;;
32894;SDS011;19251;49.484;8.260;2022-09-30T13:44:21;6.12;;;2.47;;
32894;SDS011;19251;49.484;8.260;2022-09-30T13:55:23;4.15;;;1.98;;
32894;SDS011;19251;49.484;8.260;2022-09-30T14:01:21;2.65;;;1.80;;
32894;SDS011;19251;49.484;8.260;2022-09-30T14:22:19;2.90;;;1.10;;
32894;SDS011;19251;49.484;8.260;2022-09-30T14:32:33;2.50;;;1.30;;
32894;SDS011;19251;49.484;8.260;2022-09-30T14:37:50;6.18;;;1.55;;
32894;SDS011;19251;49.484;8.260;2022-09-30T14:43:00;2.62;;;1.20;;
32894;SDS011;19251;49.484;8.260;2022-09-30T14:48:09;12.77;;;1.45;;
32894;SDS011;19251;49.484;8.260;2022-09-30T14:53:27;6.93;;;1.90;;
32894;SDS011;19251;49.484;8.260;2022-09-30T14:58:30;2.83;;;1.40;;
32894;SDS011;19251;49.484;8.260;2022-09-30T15:03:43;4.45;;;1.42;;
32894;SDS011;19251;49.484;8.260;2022-09-30T15:08:49;2.03;;;1.20;;
32894;SDS011;19251;49.484;8.260;2022-09-30T15:14:07;2.25;;;1.15;;
32894;SDS011;19251;49.484;8.260;2022-09-30T15:19:28;2.92;;;1.50;;
32894;SDS011;19251;49.484;8.260;2022-09-30T15:24:37;3.75;;;1.40;;
32894;SDS011;19251;49.484;8.260;2022-09-30T15:29:56;4.20;;;1.50;;
32894;SDS011;19251;49.484;8.260;2022-09-30T15:35:04;2.75;;;1.10;;
32894;SDS011;19251;49.484;8.260;2022-09-30T15:40:14;6.68;;;2.55;;
32894;SDS011;19251;49.484;8.260;2022-09-30T15:45:38;4.30;;;1.75;;
32894;SDS011;19251;49.484;8.260;2022-09-30T15:50:45;2.47;;;1.35;;
32894;SDS011;19251;49.484;8.260;2022-09-30T15:55:50;5.97;;;1.75;;
32894;SDS011;19251;49.484;8.260;2022-09-30T16:01:13;4.85;;;2.05;;
32894;SDS011;19251;49.484;8.260;2022-09-30T16:06:30;2.50;;;1.60;;
32894;SDS011;19251;49.484;8.260;2022-09-30T16:11:42;3.33;;;1.90;;
32894;SDS011;19251;49.484;8.260;2022-09-30T16:16:58;4.10;;;1.63;;
32894;SDS011;19251;49.484;8.260;2022-09-30T16:22:02;2.72;;;1.37;;
32894;SDS011;19251;49.484;8.260;2022-09-30T16:32:37;3.22;;;1.33;;
32894;SDS011;19251;49.484;8.260;2022-09-30T16:37:42;4.65;;;1.45;;
32894;SDS011;19251;49.484;8.260;2022-09-30T16:42:44;2.53;;;1.40;;
32894;SDS011;19251;49.484;8.260;2022-09-30T16:47:47;7.47;;;1.85;;
32894;SDS011;19251;49.484;8.260;2022-09-30T16:52:50;4.95;;;1.27;;
32894;SDS011;19251;49.484;8.260;2022-09-30T16:57:56;5.80;;;1.85;;
32894;SDS011;19251;49.484;8.260;2022-09-30T17:02:59;4.22;;;1.40;;
32894;SDS011;19251;49.484;8.260;2022-09-30T17:08:01;6.13;;;3.27;;
32894;SDS011;19251;49.484;8.260;2022-09-30T17:13:03;8.25;;;6.15;;
32894;SDS011;19251;49.484;8.260;2022-09-30T17:18:06;12.30;;;6.23;;
32894;SDS011;19251;49.484;8.260;2022-09-30T17:23:10;5.25;;;3.53;;
32894;SDS011;19251;49.484;8.260;2022-09-30T17:28:13;5.87;;;3.15;;
32894;SDS011;19251;49.484;8.260;2022-09-30T17:38:19;3.05;;;2.75;;
32894;SDS011;19251;49.484;8.260;2022-09-30T17:43:21;8.15;;;5.70;;
32894;SDS011;19251;49.484;8.260;2022-09-30T17:48:23;11.12;;;6.65;;
32894;SDS011;19251;49.484;8.260;2022-09-30T17:53:25;8.63;;;4.60;;
32894;SDS011;19251;49.484;8.260;2022-09-30T17:58:29;10.48;;;4.40;;
32894;SDS011;19251;49.484;8.260;2022-09-30T18:03:32;6.80;;;4.13;;
32894;SDS011;19251;49.484;8.260;2022-09-30T18:08:34;7.28;;;4.72;;
32894;SDS011;19251;49.484;8.260;2022-09-30T18:13:36;6.60;;;4.00;;
32894;SDS011;19251;49.484;8.260;2022-09-30T18:18:38;3.37;;;2.23;;
32894;SDS011;19251;49.484;8.260;2022-09-30T18:23:40;8.40;;;4.37;;
32894;SDS011;19251;49.484;8.260;2022-09-30T18:28:42;11.15;;;6.80;;
32894;SDS011;19251;49.484;8.260;2022-09-30T18:33:46;12.30;;;5.47;;
32894;SDS011;19251;49.484;8.260;2022-09-30T18:38:52;8.55;;;6.22;;
32894;SDS011;19251;49.484;8.260;2022-09-30T18:43:54;7.70;;;5.67;;
32894;SDS011;19251;49.484;8.260;2022-09-30T18:49:02;8.68;;;5.53;;
32894;SDS011;19251;49.484;8.260;2022-09-30T18:54:05;6.55;;;4.43;;
32894;SDS011;19251;49.484;8.260;2022-09-30T18:59:08;11.47;;;5.37;;
32894;SDS011;19251;49.484;8.260;2022-09-30T19:04:21;8.73;;;5.50;;
32894;SDS011;19251;49.484;8.260;2022-09-30T19:09:23;9.40;;;6.10;;
32894;SDS011;19251;49.484;8.260;2022-09-30T19:14:27;12.17;;;5.97;;
32894;SDS011;19251;49.484;8.260;2022-09-30T19:19:33;10.77;;;5.20;;
32894;SDS011;19251;49.484;8.260;2022-09-30T19:24:41;8.53;;;4.30;;
32894;SDS011;19251;49.484;8.260;2022-09-30T19:29:43;6.70;;;3.90;;
32894;SDS011;19251;49.484;8.260;2022-09-30T19:34:45;8.23;;;3.47;;
32894;SDS011;19251;49.484;8.260;2022-09-30T19:40:00;8.53;;;3.43;;
32894;SDS011;19251;49.484;8.260;2022-09-30T19:45:20;3.65;;;2.60;;
32894;SDS011;19251;49.484;8.260;2022-09-30T19:50:26;5.90;;;3.00;;
32894;SDS011;19251;49.484;8.260;2022-09-30T19:55:28;4.67;;;2.87;;
32894;SDS011;19251;49.484;8.260;2022-09-30T20:00:40;3.20;;;2.40;;
32894;SDS011;19251;49.484;8.260;2022-09-30T20:05:42;3.40;;;1.95;;
32894;SDS011;19251;49.484;8.260;2022-09-30T20:10:44;5.68;;;2.80;;
32894;SDS011;19251;49.484;8.260;2022-09-30T20:15:46;1.70;;;1.50;;
32894;SDS011;19251;49.484;8.260;2022-09-30T20:20:51;4.67;;;1.20;;
32894;SDS011;19251;49.484;8.260;2022-09-30T20:25:55;4.70;;;1.95;;
32894;SDS011;19251;49.484;8.260;2022-09-30T20:30:57;3.50;;;2.00;;
32894;SDS011;19251;49.484;8.260;2022-09-30T20:35:59;3.47;;;2.53;;
32894;SDS011;19251;49.484;8.260;2022-09-30T20:41:02;4.65;;;2.78;;
32894;SDS011;19251;49.484;8.260;2022-09-30T20:46:04;27.20;;;13.65;;
32894;SDS011;19251;49.484;8.260;2022-09-30T20:51:09;21.07;;;13.53;;
32894;SDS011;19251;49.484;8.260;2022-09-30T20:56:13;16.25;;;10.20;;
32894;SDS011;19251;49.484;8.260;2022-09-30T21:01:16;8.07;;;5.12;;
32894;SDS011;19251;49.484;8.260;2022-09-30T21:06:20;5.80;;;4.50;;
32894;SDS011;19251;49.484;8.260;2022-09-30T21:11:25;9.95;;;6.50;;
32894;SDS011;19251;49.484;8.260;2022-09-30T21:16:27;9.47;;;5.23;;
32894;SDS011;19251;49.484;8.260;2022-09-30T21:21:30;5.93;;;4.35;;
32894;SDS011;19251;49.484;8.260;2022-09-30T21:26:33;6.22;;;3.62;;
32894;SDS011;19251;49.484;8.260;2022-09-30T21:31:36;5.40;;;2.90;;
32894;SDS011;19251;49.484;8.260;2022-09-30T21:41:41;4.10;;;3.05;;
32894;SDS011;19251;49.484;8.260;2022-09-30T21:46:43;5.57;;;2.53;;
32894;SDS011;19251;49.484;8.260;2022-09-30T21:51:49;3.20;;;2.10;;
32894;SDS011;19251;49.484;8.260;2022-09-30T21:56:53;3.10;;;2.40;;
32894;SDS011;19251;49.484;8.260;2022-09-30T22:01:55;3.77;;;2.43;;
32894;SDS011;19251;49.484;8.260;2022-09-30T22:06:58;2.85;;;2.50;;
32894;SDS011;19251;49.484;8.260;2022-09-30T22:12:00;3.17;;;2.10;;
32894;SDS011;19251;49.484;8.260;2022-09-30T22:17:09;18.25;;;3.80;;
32894;SDS011;19251;49.484;8.260;2022-09-30T22:22:11;2.77;;;2.13;;
32894;SDS011;19251;49.484;8.260;2022-09-30T22:27:13;7.97;;;3.00;;
32894;SDS011;19251;49.484;8.260;2022-09-30T22:32:15;3.57;;;2.97;;
32894;SDS011;19251;49.484;8.260;2022-09-30T22:37:17;6.35;;;2.80;;
32894;SDS011;19251;49.484;8.260;2022-09-30T22:42:38;3.87;;;2.93;;
32894;SDS011;19251;49.484;8.260;2022-09-30T22:47:40;6.10;;;3.07;;
32894;SDS011;19251;49.484;8.260;2022-09-30T22:52:42;5.87;;;2.97;;
32894;SDS011;19251;49.484;8.260;2022-09-30T22:57:44;5.90;;;3.80;;
32894;SDS011;19251;49.484;8.260;2022-09-30T23:02:46;4.50;;;3.20;;
32894;SDS011;19251;49.484;8.260;2022-09-30T23:07:53;6.43;;;3.23;;
32894;SDS011;19251;49.484;8.260;2022-09-30T23:12:55;6.57;;;3.40;;
32894;SDS011;19251;49.484;8.260;2022-09-30T23:17:57;5.20;;;3.50;;
32894;SDS011;19251;49.484;8.260;2022-09-30T23:22:59;7.67;;;3.37;;
32894;SDS011;19251;49.484;8.260;2022-09-30T23:28:01;3.47;;;2.42;;
32894;SDS011;19251;49.484;8.260;2022-09-30T23:33:03;4.00;;;2.97;;
32894;SDS011;19251;49.484;8.260;2022-09-30T23:38:09;5.10;;;3.13;;
32894;SDS011;19251;49.484;8.260;2022-09-30T23:43:11;4.10;;;3.07;;
32894;SDS011;19251;49.484;8.260;2022-09-30T23:48:13;5.35;;;3.70;;
32894;SDS011;19251;49.484;8.260;2022-09-30T23:53:19;3.27;;;2.50;;
32894;SDS011;19251;49.484;8.260;2022-09-30T23:58:22;4.50;;;2.80;;
